Flight Track Log - Related Links

Times and Time Zones

All times are in EDT time to prevent confusion due to time zone crossing. See the JBU1522 flight status page for this flight to view local times or setup timezone preferences in your user account.

Time Position Orientation Groundspeed Altitude Reporting Facility
EDT Latitude Longitude Course Direction KTS MPH feet Rate Location/Type
Sat 01:19:19 PM 33.8333 -118.2167 338° Northwest 188 216 2,300  Level Southern California TRACON
Sat 01:20:15 PM 33.8392 -118.2747 277° West 226 260 3,300 1,780 Climbing Los Angeles Center
Sat 01:21:00 PM 34.0071 -118.4619 337° Northwest  Level FlightAware Approximate
Sat 01:21:17 PM 33.8547 -118.3522 284° West 239 275 5,800  Level Los Angeles Center
Sat 01:22:00 PM 34.1169 -118.5096 335° Northwest  Level FlightAware Approximate
Sat 01:22:19 PM 33.8794 -118.4547 286° West 264 304 7,500  Level Los Angeles Center
Sat 01:23:00 PM 34.2241 -118.5741 320° Northwest  Level FlightAware Approximate
Sat 01:23:21 PM 33.9378 -118.5289 313° West 301 346 10,200  Level Los Angeles Center
Sat 01:24:00 PM 34.3303 -118.6235 338° Northwest  Level FlightAware Approximate
Sat 01:24:23 PM 34.0214 -118.5608 342° North 313 360 12,500  Level Los Angeles Center
Sat 01:25:25 PM 34.1061 -118.5944 342° North 326 375 14,300 1,403 Climbing Los Angeles Center
Sat 01:26:27 PM 34.1992 -118.6300 342° North 343 395 15,400 823 Climbing Los Angeles Center
Sat 01:27:29 PM 34.3064 -118.6708 343° North 390 449 16,000 290 Climbing Los Angeles Center
Sat 01:28:31 PM 34.4436 -118.7222 343° North 427 491 16,000 435 Level Los Angeles Center
Sat 01:29:33 PM 34.5572 -118.7653 343° North 428 493 16,900 1,694 Climbing Los Angeles Center
Sat 01:30:35 PM 34.6703 -118.8111 342° North 429 494 19,500 2,064 Climbing Los Angeles Center
Sat 01:31:38 PM 34.7814 -118.8539 342° North 422 486 21,200 1,392 Climbing Los Angeles Center
Sat 01:32:40 PM 34.9050 -118.8975 344° North 430 495 22,400 871 Climbing Los Angeles Center
Sat 01:33:42 PM 35.0242 -118.9378 345° North 442 509 23,000 677 Climbing Los Angeles Center
Sat 01:34:44 PM 35.1417 -118.9778 344° North 441 507 23,800 1,016 Climbing Los Angeles Center
Sat 01:35:46 PM 35.2875 -119.0278 344° North 456 525 25,100 1,258 Climbing Los Angeles Center
Sat 01:36:48 PM 35.4125 -119.0714 344° North 464 534 26,400 1,181 Climbing Los Angeles Center
Sat 01:37:53 PM 35.5353 -119.1194 342° North 465 535 27,600 1,113 Climbing Los Angeles Center
Sat 01:38:52 PM 35.6550 -119.1822 337° Northwest 468 539 28,700 1,041 Climbing Los Angeles Center
Sat 01:39:54 PM 35.7767 -119.2428 338° Northwest 471 542 29,700 1,306 Climbing Los Angeles Center
Sat 01:40:56 PM 35.9286 -119.2972 344° North 475 547 31,400 1,488 Climbing Los Angeles Center
Sat 01:41:59 PM 36.0514 -119.3425 343° North 468 539 32,800 1,258 Climbing Los Angeles Center
Sat 01:43:00 PM 36.1733 -119.3864 344° North 460 529 34,000 1,008 Climbing Los Angeles Center
Sat 01:44:04 PM 36.2933 -119.4297 344° North 454 522 34,900 864 Climbing Los Angeles Center
Sat 01:45:12 PM 36.4369 -119.4794 344° North 455 524 35,900 512 Climbing Oakland Center
Sat 01:46:13 PM 36.5561 -119.5222 344° North 450 518 36,000 49 Climbing Oakland Center
Sat 01:47:15 PM 36.6758 -119.5658 344° North 450 518 36,000  Level Oakland Center
Sat 01:48:16 PM 36.7967 -119.6097 344° North 452 520 36,000  Level Oakland Center
Sat 01:49:18 PM 36.9175 -119.6519 344° North 452 520 36,000  Level Oakland Center
Sat 01:50:19 PM 37.0631 -119.7056 344° North 454 522 36,000  Level Oakland Center
Sat 01:51:21 PM 37.1847 -119.7508 343° North 457 526 36,000  Level Oakland Center
Sat 01:52:23 PM 37.3061 -119.7958 344° North 456 525 36,000  Level Oakland Center
Sat 01:53:24 PM 37.4317 -119.8428 343° North 456 525 36,000  Level Oakland Center
Sat 01:54:26 PM 37.5550 -119.8875 344° North 459 528 36,000  Level Oakland Center
Sat 01:55:27 PM 37.6778 -119.9342 343° North 459 528 36,000  Level Oakland Center
Sat 01:56:29 PM 37.7983 -119.9794 343° North 455 524 36,000  Level Oakland Center
Sat 01:57:31 PM 37.9186 -120.0250 343° North 453 521 36,000  Level Oakland Center
Sat 01:58:32 PM 38.0653 -120.0803 343° North 456 525 36,000  Level Oakland Center
Sat 01:59:34 PM 38.1853 -120.1253 344° North 452 520 36,000  Level Oakland Center
Sat 02:00:36 PM 38.3083 -120.1722 343° North 461 531 36,000  Level Oakland Center
Sat 02:01:37 PM 38.4300 -120.2189 343° North 459 528 36,000  Level Oakland Center
Sat 02:02:39 PM 38.5519 -120.2658 343° North 459 528 36,000  Level Oakland Center
Sat 02:03:41 PM 38.6739 -120.3122 343° North 458 527 36,000  Level Oakland Center
Sat 02:04:42 PM 38.7958 -120.3603 343° North 460 529 36,000  Level Oakland Center
Sat 02:05:44 PM 38.9428 -120.4164 343° North 462 532 36,000  Level Oakland Center
Sat 02:06:46 PM 39.0656 -120.4642 343° North 462 532 36,000  Level Oakland Center
Sat 02:07:47 PM 39.1869 -120.5119 343° North 459 528 36,000  Level Oakland Center
Sat 02:08:49 PM 39.3094 -120.5600 343° North 460 529 36,000  Level Oakland Center
Sat 02:09:51 PM 39.4300 -120.6083 343° North 456 525 36,000  Level Oakland Center
Sat 02:10:52 PM 39.5519 -120.6553 343° North 458 527 36,000  Level Oakland Center
Sat 02:11:54 PM 39.6981 -120.7136 343° North 457 526 36,000  Level Oakland Center
Sat 02:12:56 PM 39.8194 -120.7639 342° North 457 526 36,000  Level Oakland Center
Sat 02:13:57 PM 39.9403 -120.8117 343° North 456 525 36,000  Level Oakland Center
Sat 02:14:59 PM 40.0725 -120.8636 343° North 461 531 36,000  Level Oakland Center
Sat 02:16:00 PM 40.1947 -120.9131 343° North 462 532 36,000  Level Oakland Center
Sat 02:17:02 PM 40.3181 -120.9631 343° North 465 535 36,000  Level Oakland Center
Sat 02:18:04 PM 40.4400 -121.0122 343° North 461 531 36,000  Level Oakland Center
Sat 02:19:05 PM 40.5653 -121.0650 342° North 464 534 36,000  Level Oakland Center
Sat 02:20:01 PM 40.6944 -121.1142 344° North 474 545 36,000  Level Seattle Center
Sat 02:21:02 PM 40.8186 -121.1658 343° North 470 541 36,000  Level Seattle Center
Sat 02:22:10 PM 40.9617 -121.2331 340° North 470 541 36,000  Level Oakland Center
Sat 02:23:12 PM 41.0894 -121.2925 341° North 472 543 36,000  Level Oakland Center
Sat 02:24:13 PM 41.2119 -121.3483 341° North 469 540 36,000  Level Oakland Center
Sat 02:25:15 PM 41.3358 -121.4056 341° North 471 542 36,000  Level Oakland Center
Sat 02:26:08 PM 41.4375 -121.4500 342° North 473 544 36,000  Level Seattle Center
Sat 02:27:09 PM 41.5611 -121.5064 341° North 470 541 36,000  Level Seattle Center
Sat 02:28:11 PM 41.7094 -121.5744 341° North 471 542 36,000  Level Seattle Center
Sat 02:29:12 PM 41.8342 -121.6328 341° North 478 550 36,000  Level Seattle Center
Sat 02:30:13 PM 41.9586 -121.6906 341° North 477 549 36,000  Level Seattle Center
Sat 02:31:14 PM 42.0814 -121.7450 342° North 473 544 36,000  Level Seattle Center
Sat 02:32:15 PM 42.2022 -121.8042 340° North 473 544 36,000  Level Seattle Center
Sat 02:33:16 PM 42.3256 -121.8617 341° North 475 547 36,000  Level Seattle Center
Sat 02:34:18 PM 42.4481 -121.9203 341° North 472 543 36,000  Level Seattle Center
Sat 02:35:19 PM 42.5925 -121.9900 340° North 463 533 36,000  Level Seattle Center
Sat 02:36:20 PM 42.7136 -122.0478 341° North 461 531 36,000  Level Seattle Center
Sat 02:37:21 PM 42.8339 -122.1069 340° North 460 529 36,000  Level Seattle Center
Sat 02:38:22 PM 42.9550 -122.1653 341° North 460 529 36,000  Level Seattle Center
Sat 02:39:23 PM 43.0767 -122.2244 340° North 462 532 36,000  Level Seattle Center
Sat 02:40:24 PM 43.2003 -122.2769 343° North 464 534 36,000  Level Seattle Center
Sat 02:41:25 PM 43.3208 -122.3400 339° North 466 536 36,000  Level Seattle Center
Sat 02:42:27 PM 43.4417 -122.3989 341° North 461 531 36,000 -293 Level Seattle Center
Sat 02:43:28 PM 43.5647 -122.4611 340° North 466 536 35,400 -787 Descending Seattle Center
Sat 02:44:29 PM 43.6908 -122.5075 345° North 468 539 34,400 -984 Descending Seattle Center
Sat 02:45:30 PM 43.8242 -122.5225 355° North 480 552 33,400 -1,623 Descending Seattle Center
Sat 02:46:31 PM 43.9867 -122.5433 355° North 488 562 31,100 -2,262 Descending Seattle Center
Sat 02:47:32 PM 44.1181 -122.5603 355° North 479 551 28,800 -2,213 Descending Seattle Center
Sat 02:48:33 PM 44.2478 -122.5764 355° North 473 544 26,600 -2,262 Descending Seattle Center
Sat 02:49:34 PM 44.3756 -122.5933 355° North 466 536 24,200 -2,311 Descending Seattle Center
Sat 02:50:35 PM 44.5033 -122.6103 355° North 465 535 21,900 -2,361 Descending Seattle Center
Sat 02:51:36 PM 44.6264 -122.6264 355° North 452 520 19,400 -2,213 Descending Seattle Center
Sat 02:52:37 PM 44.7456 -122.6425 355° North 436 502 17,400 -2,411 Descending Seattle Center
Sat 02:53:23 PM 44.8478 -122.6583 354° North 416 479 15,100 -3,089 Descending Seattle Center
Sat 02:54:18 PM 44.9483 -122.6728 354° North 389 448 12,200 -2,661 Descending Seattle Center
Sat 02:55:18 PM 45.0508 -122.6650 North 357 411 10,000 -1,785 Descending Seattle Center
Sat 02:56:19 PM 45.1356 -122.6553 North 297 342 8,600 -1,328 Descending Seattle Center
Sat 02:57:20 PM 45.2103 -122.6189 19° North 293 337 7,300 -984 Descending Seattle Center
Sat 02:58:21 PM 45.2822 -122.5558 32° Northeast 285 328 6,600 -1,091 Descending Seattle Center
Sat 02:59:21 PM 45.3478 -122.4953 33° Northeast 278 320 5,100 -1,228 Descending Seattle Center
Sat 03:00:28 PM 45.4150 -122.4308 34° Northeast 270 311 4,000 -516 Descending Seattle Center
Sat 03:01:29 PM 45.4753 -122.3753 33° Northeast 266 306 4,000 -836 Level Seattle Center
Sat 03:02:30 PM 45.5317 -122.4289 326° Northwest 252 290 2,300 -1,448 Descending Seattle Center
Sat 03:03:25 PM 45.5567 -122.4989 297° West 204 235 1,200 -992 Descending Seattle Center
Sat 03:04:31 PM 45.5794 -122.5575 299° West 133 153 300 -818 Descending Seattle Center

Login

Don't have an account? Register now (free) for customized features, flight alerts, and more!